sensor_id;sensor_type;location;lat;lon;timestamp;P1;durP1;ratioP1;P2;durP2;ratioP2
60730;SDS011;46580;52.114;11.674;2023-07-02T00:00:57;5.17;;;2.83;;
60730;SDS011;46580;52.114;11.674;2023-07-02T00:03:22;4.87;;;2.60;;
60730;SDS011;46580;52.114;11.674;2023-07-02T00:05:48;4.80;;;2.90;;
60730;SDS011;46580;52.114;11.674;2023-07-02T00:08:15;7.93;;;3.10;;
60730;SDS011;46580;52.114;11.674;2023-07-02T00:10:41;3.90;;;2.53;;
60730;SDS011;46580;52.114;11.674;2023-07-02T00:13:06;4.63;;;2.60;;
60730;SDS011;46580;52.114;11.674;2023-07-02T00:15:32;5.77;;;2.90;;
60730;SDS011;46580;52.114;11.674;2023-07-02T00:17:57;5.57;;;2.33;;
60730;SDS011;46580;52.114;11.674;2023-07-02T00:20:22;5.93;;;2.83;;
60730;SDS011;46580;52.114;11.674;2023-07-02T00:22:48;4.73;;;2.30;;
60730;SDS011;46580;52.114;11.674;2023-07-02T00:25:14;6.10;;;2.60;;
60730;SDS011;46580;52.114;11.674;2023-07-02T00:27:39;4.23;;;2.37;;
60730;SDS011;46580;52.114;11.674;2023-07-02T00:30:06;4.40;;;2.13;;
60730;SDS011;46580;52.114;11.674;2023-07-02T00:32:34;2.83;;;2.57;;
60730;SDS011;46580;52.114;11.674;2023-07-02T00:34:59;5.77;;;2.33;;
60730;SDS011;46580;52.114;11.674;2023-07-02T00:37:25;2.90;;;2.23;;
60730;SDS011;46580;52.114;11.674;2023-07-02T00:39:50;5.43;;;2.57;;
60730;SDS011;46580;52.114;11.674;2023-07-02T00:42:17;5.27;;;2.70;;
60730;SDS011;46580;52.114;11.674;2023-07-02T00:44:42;4.70;;;2.47;;
60730;SDS011;46580;52.114;11.674;2023-07-02T00:47:08;4.47;;;2.27;;
60730;SDS011;46580;52.114;11.674;2023-07-02T00:49:34;2.90;;;2.70;;
60730;SDS011;46580;52.114;11.674;2023-07-02T00:51:59;4.23;;;3.00;;
60730;SDS011;46580;52.114;11.674;2023-07-02T00:54:27;4.30;;;2.70;;
60730;SDS011;46580;52.114;11.674;2023-07-02T00:56:56;4.60;;;2.70;;
60730;SDS011;46580;52.114;11.674;2023-07-02T00:59:21;2.90;;;2.60;;
60730;SDS011;46580;52.114;11.674;2023-07-02T01:01:46;4.27;;;3.17;;
60730;SDS011;46580;52.114;11.674;2023-07-02T01:04:18;3.87;;;3.20;;
60730;SDS011;46580;52.114;11.674;2023-07-02T01:06:43;4.53;;;2.70;;
60730;SDS011;46580;52.114;11.674;2023-07-02T01:09:09;5.20;;;3.10;;
60730;SDS011;46580;52.114;11.674;2023-07-02T01:11:41;5.47;;;2.90;;
60730;SDS011;46580;52.114;11.674;2023-07-02T01:16:32;4.57;;;3.10;;
60730;SDS011;46580;52.114;11.674;2023-07-02T01:18:58;5.57;;;3.10;;
60730;SDS011;46580;52.114;11.674;2023-07-02T01:21:29;3.47;;;2.70;;
60730;SDS011;46580;52.114;11.674;2023-07-02T01:23:54;4.10;;;3.10;;
60730;SDS011;46580;52.114;11.674;2023-07-02T01:26:20;3.43;;;3.10;;
60730;SDS011;46580;52.114;11.674;2023-07-02T01:28:45;4.40;;;3.30;;
60730;SDS011;46580;52.114;11.674;2023-07-02T01:31:10;3.73;;;2.87;;
60730;SDS011;46580;52.114;11.674;2023-07-02T01:33:38;4.27;;;3.07;;
60730;SDS011;46580;52.114;11.674;2023-07-02T01:36:04;5.07;;;2.93;;
60730;SDS011;46580;52.114;11.674;2023-07-02T01:38:29;4.03;;;2.97;;
60730;SDS011;46580;52.114;11.674;2023-07-02T01:40:54;4.77;;;3.07;;
60730;SDS011;46580;52.114;11.674;2023-07-02T01:43:19;3.87;;;3.07;;
60730;SDS011;46580;52.114;11.674;2023-07-02T01:45:45;4.13;;;3.20;;
60730;SDS011;46580;52.114;11.674;2023-07-02T01:48:10;4.37;;;3.30;;
60730;SDS011;46580;52.114;11.674;2023-07-02T01:50:35;5.90;;;3.30;;
60730;SDS011;46580;52.114;11.674;2023-07-02T01:53:01;3.33;;;2.93;;
60730;SDS011;46580;52.114;11.674;2023-07-02T01:55:26;3.40;;;3.10;;
60730;SDS011;46580;52.114;11.674;2023-07-02T01:57:51;3.90;;;3.50;;
60730;SDS011;46580;52.114;11.674;2023-07-02T02:00:16;5.57;;;3.37;;
60730;SDS011;46580;52.114;11.674;2023-07-02T02:02:42;3.57;;;3.00;;
60730;SDS011;46580;52.114;11.674;2023-07-02T02:05:08;4.93;;;3.03;;
60730;SDS011;46580;52.114;11.674;2023-07-02T02:07:35;6.57;;;2.80;;
60730;SDS011;46580;52.114;11.674;2023-07-02T02:10:00;3.50;;;2.70;;
60730;SDS011;46580;52.114;11.674;2023-07-02T02:12:26;3.53;;;2.80;;
60730;SDS011;46580;52.114;11.674;2023-07-02T02:14:53;7.37;;;3.27;;
60730;SDS011;46580;52.114;11.674;2023-07-02T02:17:18;4.40;;;3.33;;
60730;SDS011;46580;52.114;11.674;2023-07-02T02:19:43;3.30;;;3.00;;
60730;SDS011;46580;52.114;11.674;2023-07-02T02:22:09;7.60;;;2.83;;
60730;SDS011;46580;52.114;11.674;2023-07-02T02:24:34;2.97;;;2.50;;
60730;SDS011;46580;52.114;11.674;2023-07-02T02:26:59;4.23;;;3.33;;
60730;SDS011;46580;52.114;11.674;2023-07-02T02:29:24;2.40;;;2.20;;
60730;SDS011;46580;52.114;11.674;2023-07-02T02:31:49;4.93;;;2.90;;
60730;SDS011;46580;52.114;11.674;2023-07-02T02:34:15;3.83;;;2.83;;
60730;SDS011;46580;52.114;11.674;2023-07-02T02:36:40;5.13;;;3.00;;
60730;SDS011;46580;52.114;11.674;2023-07-02T02:39:05;2.70;;;2.40;;
60730;SDS011;46580;52.114;11.674;2023-07-02T02:41:30;3.57;;;2.87;;
60730;SDS011;46580;52.114;11.674;2023-07-02T02:43:56;3.47;;;2.63;;
60730;SDS011;46580;52.114;11.674;2023-07-02T02:46:21;3.03;;;2.43;;
60730;SDS011;46580;52.114;11.674;2023-07-02T02:48:49;4.23;;;2.47;;
60730;SDS011;46580;52.114;11.674;2023-07-02T02:51:15;4.07;;;2.50;;
60730;SDS011;46580;52.114;11.674;2023-07-02T02:53:41;2.87;;;2.37;;
60730;SDS011;46580;52.114;11.674;2023-07-02T02:56:06;4.50;;;2.40;;
60730;SDS011;46580;52.114;11.674;2023-07-02T02:58:31;4.93;;;2.27;;
60730;SDS011;46580;52.114;11.674;2023-07-02T03:00:56;8.03;;;2.87;;
60730;SDS011;46580;52.114;11.674;2023-07-02T03:03:22;2.60;;;2.40;;
60730;SDS011;46580;52.114;11.674;2023-07-02T03:05:49;3.17;;;2.40;;
60730;SDS011;46580;52.114;11.674;2023-07-02T03:08:14;2.30;;;2.10;;
60730;SDS011;46580;52.114;11.674;2023-07-02T03:10:39;3.43;;;2.07;;
60730;SDS011;46580;52.114;11.674;2023-07-02T03:13:04;2.50;;;1.77;;
60730;SDS011;46580;52.114;11.674;2023-07-02T03:15:30;2.50;;;1.83;;
60730;SDS011;46580;52.114;11.674;2023-07-02T03:17:55;2.43;;;2.03;;
60730;SDS011;46580;52.114;11.674;2023-07-02T03:20:21;3.73;;;2.00;;
60730;SDS011;46580;52.114;11.674;2023-07-02T03:22:49;4.27;;;2.00;;
60730;SDS011;46580;52.114;11.674;2023-07-02T03:25:14;2.17;;;1.97;;
60730;SDS011;46580;52.114;11.674;2023-07-02T03:27:40;2.27;;;1.77;;
60730;SDS011;46580;52.114;11.674;2023-07-02T03:30:05;3.90;;;1.87;;
60730;SDS011;46580;52.114;11.674;2023-07-02T03:32:31;2.33;;;2.00;;
60730;SDS011;46580;52.114;11.674;2023-07-02T03:34:57;3.23;;;1.80;;
60730;SDS011;46580;52.114;11.674;2023-07-02T03:37:22;2.00;;;1.43;;
60730;SDS011;46580;52.114;11.674;2023-07-02T03:39:47;2.47;;;1.67;;
60730;SDS011;46580;52.114;11.674;2023-07-02T03:42:12;4.30;;;1.80;;
60730;SDS011;46580;52.114;11.674;2023-07-02T03:44:38;7.17;;;2.17;;
60730;SDS011;46580;52.114;11.674;2023-07-02T03:47:03;4.23;;;2.10;;
60730;SDS011;46580;52.114;11.674;2023-07-02T03:49:28;5.53;;;2.00;;
60730;SDS011;46580;52.114;11.674;2023-07-02T03:51:54;3.13;;;1.73;;
60730;SDS011;46580;52.114;11.674;2023-07-02T03:54:19;2.73;;;1.90;;
60730;SDS011;46580;52.114;11.674;2023-07-02T03:56:44;4.27;;;1.87;;
60730;SDS011;46580;52.114;11.674;2023-07-02T03:59:10;3.60;;;1.80;;
60730;SDS011;46580;52.114;11.674;2023-07-02T04:01:39;3.73;;;1.60;;
60730;SDS011;46580;52.114;11.674;2023-07-02T04:04:04;1.77;;;1.60;;
60730;SDS011;46580;52.114;11.674;2023-07-02T04:06:30;1.93;;;1.50;;
60730;SDS011;46580;52.114;11.674;2023-07-02T04:08:55;3.50;;;1.60;;
60730;SDS011;46580;52.114;11.674;2023-07-02T04:11:20;2.90;;;1.37;;
60730;SDS011;46580;52.114;11.674;2023-07-02T04:13:45;4.57;;;1.60;;
60730;SDS011;46580;52.114;11.674;2023-07-02T04:16:11;2.17;;;1.70;;
60730;SDS011;46580;52.114;11.674;2023-07-02T04:18:36;2.97;;;1.67;;
60730;SDS011;46580;52.114;11.674;2023-07-02T04:21:01;2.13;;;1.63;;
60730;SDS011;46580;52.114;11.674;2023-07-02T04:23:27;4.70;;;2.00;;
60730;SDS011;46580;52.114;11.674;2023-07-02T04:25:52;5.53;;;2.30;;
60730;SDS011;46580;52.114;11.674;2023-07-02T04:28:17;4.87;;;2.00;;
60730;SDS011;46580;52.114;11.674;2023-07-02T04:30:44;2.23;;;1.37;;
60730;SDS011;46580;52.114;11.674;2023-07-02T04:33:09;5.33;;;1.93;;
60730;SDS011;46580;52.114;11.674;2023-07-02T04:35:39;3.80;;;1.80;;
60730;SDS011;46580;52.114;11.674;2023-07-02T04:38:04;7.37;;;2.27;;
60730;SDS011;46580;52.114;11.674;2023-07-02T04:40:29;3.07;;;1.77;;
60730;SDS011;46580;52.114;11.674;2023-07-02T04:42:55;3.73;;;1.87;;
60730;SDS011;46580;52.114;11.674;2023-07-02T04:45:23;4.10;;;1.97;;
60730;SDS011;46580;52.114;11.674;2023-07-02T04:47:49;3.20;;;1.63;;
60730;SDS011;46580;52.114;11.674;2023-07-02T04:50:15;4.40;;;1.67;;
60730;SDS011;46580;52.114;11.674;2023-07-02T04:52:40;4.90;;;2.07;;
60730;SDS011;46580;52.114;11.674;2023-07-02T04:55:06;2.60;;;1.83;;
60730;SDS011;46580;52.114;11.674;2023-07-02T04:57:31;4.87;;;2.00;;
60730;SDS011;46580;52.114;11.674;2023-07-02T04:59:57;2.13;;;1.80;;
60730;SDS011;46580;52.114;11.674;2023-07-02T05:02:22;4.30;;;1.93;;
60730;SDS011;46580;52.114;11.674;2023-07-02T05:04:47;4.17;;;2.27;;
60730;SDS011;46580;52.114;11.674;2023-07-02T05:07:12;2.83;;;2.00;;
60730;SDS011;46580;52.114;11.674;2023-07-02T05:09:38;4.43;;;2.10;;
60730;SDS011;46580;52.114;11.674;2023-07-02T05:12:03;3.57;;;2.07;;
60730;SDS011;46580;52.114;11.674;2023-07-02T05:14:28;4.43;;;1.93;;
60730;SDS011;46580;52.114;11.674;2023-07-02T05:16:54;3.97;;;2.10;;
60730;SDS011;46580;52.114;11.674;2023-07-02T05:19:19;6.87;;;2.40;;
60730;SDS011;46580;52.114;11.674;2023-07-02T05:21:47;2.57;;;2.27;;
60730;SDS011;46580;52.114;11.674;2023-07-02T05:24:13;2.73;;;1.97;;
60730;SDS011;46580;52.114;11.674;2023-07-02T05:26:38;2.83;;;2.20;;
60730;SDS011;46580;52.114;11.674;2023-07-02T05:29:07;3.77;;;2.37;;
60730;SDS011;46580;52.114;11.674;2023-07-02T05:31:32;3.50;;;2.20;;
60730;SDS011;46580;52.114;11.674;2023-07-02T05:33:59;6.30;;;2.70;;
60730;SDS011;46580;52.114;11.674;2023-07-02T05:36:24;2.30;;;2.10;;
60730;SDS011;46580;52.114;11.674;2023-07-02T05:38:49;2.53;;;2.10;;
60730;SDS011;46580;52.114;11.674;2023-07-02T05:41:21;1.77;;;1.53;;
60730;SDS011;46580;52.114;11.674;2023-07-02T05:43:47;2.17;;;1.97;;
60730;SDS011;46580;52.114;11.674;2023-07-02T05:46:12;3.57;;;1.97;;
60730;SDS011;46580;52.114;11.674;2023-07-02T05:48:39;3.80;;;2.50;;
60730;SDS011;46580;52.114;11.674;2023-07-02T05:51:04;3.90;;;2.30;;
60730;SDS011;46580;52.114;11.674;2023-07-02T05:53:29;2.70;;;2.33;;
60730;SDS011;46580;52.114;11.674;2023-07-02T05:55:54;3.03;;;2.17;;
60730;SDS011;46580;52.114;11.674;2023-07-02T05:58:20;5.03;;;2.53;;
60730;SDS011;46580;52.114;11.674;2023-07-02T06:00:46;2.97;;;2.30;;
60730;SDS011;46580;52.114;11.674;2023-07-02T06:03:14;4.67;;;2.40;;
60730;SDS011;46580;52.114;11.674;2023-07-02T06:05:52;3.47;;;2.67;;
60730;SDS011;46580;52.114;11.674;2023-07-02T06:08:18;3.83;;;2.50;;
60730;SDS011;46580;52.114;11.674;2023-07-02T06:10:46;3.83;;;2.60;;
60730;SDS011;46580;52.114;11.674;2023-07-02T06:13:12;3.60;;;2.50;;
60730;SDS011;46580;52.114;11.674;2023-07-02T06:15:38;3.63;;;2.77;;
60730;SDS011;46580;52.114;11.674;2023-07-02T06:18:03;3.20;;;2.60;;
60730;SDS011;46580;52.114;11.674;2023-07-02T06:20:28;2.73;;;2.23;;
60730;SDS011;46580;52.114;11.674;2023-07-02T06:22:53;4.20;;;2.50;;
60730;SDS011;46580;52.114;11.674;2023-07-02T06:25:19;3.33;;;2.77;;
60730;SDS011;46580;52.114;11.674;2023-07-02T06:27:44;3.47;;;2.60;;
60730;SDS011;46580;52.114;11.674;2023-07-02T06:30:09;4.70;;;2.70;;
60730;SDS011;46580;52.114;11.674;2023-07-02T06:32:35;4.03;;;2.77;;
60730;SDS011;46580;52.114;11.674;2023-07-02T06:35:00;3.80;;;2.67;;
60730;SDS011;46580;52.114;11.674;2023-07-02T06:37:26;3.93;;;2.80;;
60730;SDS011;46580;52.114;11.674;2023-07-02T06:39:51;4.70;;;2.90;;
60730;SDS011;46580;52.114;11.674;2023-07-02T06:42:16;4.03;;;3.07;;
60730;SDS011;46580;52.114;11.674;2023-07-02T06:44:41;4.27;;;3.37;;
60730;SDS011;46580;52.114;11.674;2023-07-02T06:47:07;4.50;;;3.27;;
60730;SDS011;46580;52.114;11.674;2023-07-02T06:49:32;3.50;;;3.13;;
60730;SDS011;46580;52.114;11.674;2023-07-02T06:51:57;3.73;;;3.33;;
60730;SDS011;46580;52.114;11.674;2023-07-02T06:54:25;4.03;;;3.63;;
60730;SDS011;46580;52.114;11.674;2023-07-02T06:56:50;4.20;;;3.70;;
60730;SDS011;46580;52.114;11.674;2023-07-02T06:59:19;3.60;;;3.30;;
60730;SDS011;46580;52.114;11.674;2023-07-02T07:01:45;4.33;;;3.77;;
60730;SDS011;46580;52.114;11.674;2023-07-02T07:04:10;4.63;;;3.67;;
60730;SDS011;46580;52.114;11.674;2023-07-02T07:06:35;4.20;;;3.80;;
60730;SDS011;46580;52.114;11.674;2023-07-02T07:09:03;6.23;;;4.53;;
60730;SDS011;46580;52.114;11.674;2023-07-02T07:11:28;5.70;;;4.73;;
60730;SDS011;46580;52.114;11.674;2023-07-02T07:13:53;6.13;;;4.23;;
60730;SDS011;46580;52.114;11.674;2023-07-02T07:16:19;6.50;;;5.23;;
60730;SDS011;46580;52.114;11.674;2023-07-02T07:18:44;6.80;;;5.67;;
60730;SDS011;46580;52.114;11.674;2023-07-02T07:21:09;7.80;;;7.00;;
60730;SDS011;46580;52.114;11.674;2023-07-02T07:23:35;11.80;;;8.40;;
60730;SDS011;46580;52.114;11.674;2023-07-02T07:26:00;9.13;;;8.13;;
60730;SDS011;46580;52.114;11.674;2023-07-02T07:28:25;9.60;;;7.80;;
60730;SDS011;46580;52.114;11.674;2023-07-02T07:30:50;10.40;;;8.60;;
60730;SDS011;46580;52.114;11.674;2023-07-02T07:33:18;10.33;;;9.37;;
60730;SDS011;46580;52.114;11.674;2023-07-02T07:35:43;10.23;;;8.97;;
60730;SDS011;46580;52.114;11.674;2023-07-02T07:38:09;11.37;;;9.33;;
60730;SDS011;46580;52.114;11.674;2023-07-02T07:40:34;9.97;;;8.90;;
60730;SDS011;46580;52.114;11.674;2023-07-02T07:42:59;11.57;;;8.27;;
60730;SDS011;46580;52.114;11.674;2023-07-02T07:45:24;10.13;;;8.60;;
60730;SDS011;46580;52.114;11.674;2023-07-02T07:47:50;14.33;;;8.53;;
60730;SDS011;46580;52.114;11.674;2023-07-02T07:50:15;9.53;;;7.17;;
60730;SDS011;46580;52.114;11.674;2023-07-02T07:52:42;8.73;;;6.87;;
60730;SDS011;46580;52.114;11.674;2023-07-02T07:55:08;8.00;;;6.47;;
60730;SDS011;46580;52.114;11.674;2023-07-02T07:57:34;9.13;;;6.30;;
60730;SDS011;46580;52.114;11.674;2023-07-02T08:00:02;7.57;;;5.53;;
60730;SDS011;46580;52.114;11.674;2023-07-02T08:02:29;10.10;;;6.17;;
60730;SDS011;46580;52.114;11.674;2023-07-02T08:04:54;8.97;;;5.87;;
60730;SDS011;46580;52.114;11.674;2023-07-02T08:07:20;6.60;;;5.20;;
60730;SDS011;46580;52.114;11.674;2023-07-02T08:09:45;7.83;;;5.27;;
60730;SDS011;46580;52.114;11.674;2023-07-02T08:12:10;9.17;;;6.47;;
60730;SDS011;46580;52.114;11.674;2023-07-02T08:14:35;10.43;;;6.57;;
60730;SDS011;46580;52.114;11.674;2023-07-02T08:17:01;9.27;;;6.30;;
60730;SDS011;46580;52.114;11.674;2023-07-02T08:19:26;11.57;;;6.30;;
60730;SDS011;46580;52.114;11.674;2023-07-02T08:21:51;9.50;;;5.77;;
60730;SDS011;46580;52.114;11.674;2023-07-02T08:24:17;9.03;;;5.63;;
60730;SDS011;46580;52.114;11.674;2023-07-02T08:26:42;7.77;;;5.60;;
60730;SDS011;46580;52.114;11.674;2023-07-02T08:29:09;13.97;;;5.97;;
60730;SDS011;46580;52.114;11.674;2023-07-02T08:31:35;13.77;;;5.20;;
60730;SDS011;46580;52.114;11.674;2023-07-02T08:34:02;14.67;;;5.50;;
60730;SDS011;46580;52.114;11.674;2023-07-02T08:36:28;12.27;;;4.97;;
60730;SDS011;46580;52.114;11.674;2023-07-02T08:38:53;8.73;;;4.70;;
60730;SDS011;46580;52.114;11.674;2023-07-02T08:41:19;11.57;;;4.97;;
60730;SDS011;46580;52.114;11.674;2023-07-02T08:43:45;16.60;;;4.83;;
60730;SDS011;46580;52.114;11.674;2023-07-02T08:46:10;13.13;;;5.23;;
60730;SDS011;46580;52.114;11.674;2023-07-02T08:48:39;14.23;;;5.13;;
60730;SDS011;46580;52.114;11.674;2023-07-02T08:51:04;16.37;;;5.13;;
60730;SDS011;46580;52.114;11.674;2023-07-02T08:53:30;13.83;;;5.87;;
60730;SDS011;46580;52.114;11.674;2023-07-02T08:55:58;12.93;;;5.50;;
60730;SDS011;46580;52.114;11.674;2023-07-02T08:58:24;9.50;;;4.83;;
60730;SDS011;46580;52.114;11.674;2023-07-02T09:03:31;11.70;;;5.03;;
60730;SDS011;46580;52.114;11.674;2023-07-02T09:05:56;12.53;;;5.40;;
60730;SDS011;46580;52.114;11.674;2023-07-02T09:08:25;11.40;;;5.63;;
60730;SDS011;46580;52.114;11.674;2023-07-02T09:10:50;12.57;;;5.00;;
60730;SDS011;46580;52.114;11.674;2023-07-02T09:13:16;11.87;;;5.43;;
60730;SDS011;46580;52.114;11.674;2023-07-02T09:15:41;13.27;;;5.30;;
60730;SDS011;46580;52.114;11.674;2023-07-02T09:18:17;15.33;;;5.77;;
60730;SDS011;46580;52.114;11.674;2023-07-02T09:20:43;11.83;;;5.20;;
60730;SDS011;46580;52.114;11.674;2023-07-02T09:23:14;10.27;;;5.07;;
60730;SDS011;46580;52.114;11.674;2023-07-02T09:25:40;13.70;;;5.47;;
60730;SDS011;46580;52.114;11.674;2023-07-02T09:28:15;13.93;;;5.00;;
60730;SDS011;46580;52.114;11.674;2023-07-02T09:30:51;14.07;;;5.87;;
60730;SDS011;46580;52.114;11.674;2023-07-02T09:33:16;14.90;;;5.80;;
60730;SDS011;46580;52.114;11.674;2023-07-02T09:35:42;10.90;;;4.53;;
60730;SDS011;46580;52.114;11.674;2023-07-02T09:38:09;14.17;;;4.87;;
60730;SDS011;46580;52.114;11.674;2023-07-02T09:40:35;10.93;;;5.27;;
60730;SDS011;46580;52.114;11.674;2023-07-02T09:43:02;9.43;;;4.80;;
60730;SDS011;46580;52.114;11.674;2023-07-02T09:45:30;14.97;;;5.37;;
60730;SDS011;46580;52.114;11.674;2023-07-02T09:47:56;13.17;;;5.57;;
60730;SDS011;46580;52.114;11.674;2023-07-02T09:50:22;13.10;;;5.63;;
60730;SDS011;46580;52.114;11.674;2023-07-02T09:52:47;13.27;;;5.03;;
60730;SDS011;46580;52.114;11.674;2023-07-02T09:55:16;12.80;;;6.03;;
60730;SDS011;46580;52.114;11.674;2023-07-02T09:57:43;12.90;;;5.50;;
60730;SDS011;46580;52.114;11.674;2023-07-02T10:00:08;12.57;;;5.00;;
60730;SDS011;46580;52.114;11.674;2023-07-02T10:02:34;13.97;;;5.57;;
60730;SDS011;46580;52.114;11.674;2023-07-02T10:05:01;12.00;;;5.00;;
60730;SDS011;46580;52.114;11.674;2023-07-02T10:07:30;19.20;;;6.20;;
60730;SDS011;46580;52.114;11.674;2023-07-02T10:09:56;13.67;;;5.10;;
60730;SDS011;46580;52.114;11.674;2023-07-02T10:14:47;13.77;;;5.47;;
60730;SDS011;46580;52.114;11.674;2023-07-02T10:17:31;16.57;;;5.57;;
60730;SDS011;46580;52.114;11.674;2023-07-02T10:20:00;13.43;;;4.97;;
60730;SDS011;46580;52.114;11.674;2023-07-02T10:22:26;13.30;;;5.37;;
60730;SDS011;46580;52.114;11.674;2023-07-02T10:24:56;13.63;;;5.07;;
60730;SDS011;46580;52.114;11.674;2023-07-02T10:27:34;14.73;;;5.43;;
60730;SDS011;46580;52.114;11.674;2023-07-02T10:30:00;15.23;;;6.20;;
60730;SDS011;46580;52.114;11.674;2023-07-02T10:32:26;10.03;;;5.57;;
60730;SDS011;46580;52.114;11.674;2023-07-02T10:34:53;12.13;;;5.73;;
60730;SDS011;46580;52.114;11.674;2023-07-02T10:37:18;13.00;;;5.40;;
60730;SDS011;46580;52.114;11.674;2023-07-02T10:39:43;14.60;;;5.57;;
60730;SDS011;46580;52.114;11.674;2023-07-02T10:42:09;13.53;;;5.40;;
60730;SDS011;46580;52.114;11.674;2023-07-02T10:44:46;13.10;;;5.70;;
60730;SDS011;46580;52.114;11.674;2023-07-02T10:47:11;13.50;;;5.83;;
60730;SDS011;46580;52.114;11.674;2023-07-02T10:49:37;15.37;;;5.97;;
60730;SDS011;46580;52.114;11.674;2023-07-02T10:52:02;11.07;;;4.90;;
60730;SDS011;46580;52.114;11.674;2023-07-02T10:54:45;11.33;;;5.27;;
60730;SDS011;46580;52.114;11.674;2023-07-02T10:57:12;12.90;;;5.37;;
60730;SDS011;46580;52.114;11.674;2023-07-02T10:59:38;16.67;;;5.40;;
60730;SDS011;46580;52.114;11.674;2023-07-02T11:02:03;12.77;;;5.60;;
60730;SDS011;46580;52.114;11.674;2023-07-02T11:04:29;13.97;;;5.70;;
60730;SDS011;46580;52.114;11.674;2023-07-02T11:06:55;15.33;;;5.30;;
60730;SDS011;46580;52.114;11.674;2023-07-02T11:09:20;11.43;;;4.97;;
60730;SDS011;46580;52.114;11.674;2023-07-02T11:11:59;12.43;;;5.60;;
60730;SDS011;46580;52.114;11.674;2023-07-02T11:14:28;13.30;;;5.33;;
60730;SDS011;46580;52.114;11.674;2023-07-02T11:16:54;14.47;;;5.10;;
60730;SDS011;46580;52.114;11.674;2023-07-02T11:19:19;13.73;;;5.20;;
60730;SDS011;46580;52.114;11.674;2023-07-02T11:21:50;19.07;;;5.83;;
60730;SDS011;46580;52.114;11.674;2023-07-02T11:24:15;13.30;;;5.47;;
60730;SDS011;46580;52.114;11.674;2023-07-02T11:26:41;12.90;;;6.10;;
60730;SDS011;46580;52.114;11.674;2023-07-02T11:29:11;13.27;;;5.80;;
60730;SDS011;46580;52.114;11.674;2023-07-02T11:31:37;14.20;;;6.17;;
60730;SDS011;46580;52.114;11.674;2023-07-02T11:34:11;15.30;;;5.80;;
60730;SDS011;46580;52.114;11.674;2023-07-02T11:36:36;15.27;;;5.67;;
60730;SDS011;46580;52.114;11.674;2023-07-02T11:39:01;14.33;;;5.60;;
60730;SDS011;46580;52.114;11.674;2023-07-02T11:41:35;12.63;;;5.70;;
60730;SDS011;46580;52.114;11.674;2023-07-02T11:44:01;11.40;;;5.33;;
60730;SDS011;46580;52.114;11.674;2023-07-02T11:46:26;15.80;;;5.03;;
60730;SDS011;46580;52.114;11.674;2023-07-02T11:48:52;15.20;;;5.80;;
60730;SDS011;46580;52.114;11.674;2023-07-02T11:51:17;11.57;;;5.87;;
60730;SDS011;46580;52.114;11.674;2023-07-02T11:53:42;13.10;;;5.90;;
60730;SDS011;46580;52.114;11.674;2023-07-02T11:56:08;11.23;;;5.03;;
60730;SDS011;46580;52.114;11.674;2023-07-02T11:58:34;11.57;;;5.37;;
60730;SDS011;46580;52.114;11.674;2023-07-02T12:00:59;13.57;;;5.70;;
60730;SDS011;46580;52.114;11.674;2023-07-02T12:03:25;11.30;;;5.13;;
60730;SDS011;46580;52.114;11.674;2023-07-02T12:05:50;14.77;;;5.70;;
60730;SDS011;46580;52.114;11.674;2023-07-02T12:08:16;11.93;;;5.43;;
60730;SDS011;46580;52.114;11.674;2023-07-02T12:10:41;11.17;;;5.27;;
60730;SDS011;46580;52.114;11.674;2023-07-02T12:13:06;9.70;;;5.07;;
60730;SDS011;46580;52.114;11.674;2023-07-02T12:15:32;12.33;;;6.00;;
60730;SDS011;46580;52.114;11.674;2023-07-02T12:17:58;13.47;;;5.87;;
60730;SDS011;46580;52.114;11.674;2023-07-02T12:20:24;12.50;;;5.73;;
60730;SDS011;46580;52.114;11.674;2023-07-02T12:22:50;15.33;;;5.17;;
60730;SDS011;46580;52.114;11.674;2023-07-02T12:25:16;15.33;;;4.87;;
60730;SDS011;46580;52.114;11.674;2023-07-02T12:27:48;16.70;;;5.03;;
60730;SDS011;46580;52.114;11.674;2023-07-02T12:30:13;15.57;;;5.80;;
60730;SDS011;46580;52.114;11.674;2023-07-02T12:32:42;17.47;;;6.27;;
60730;SDS011;46580;52.114;11.674;2023-07-02T12:35:07;10.40;;;5.17;;
60730;SDS011;46580;52.114;11.674;2023-07-02T12:37:33;10.00;;;5.03;;
60730;SDS011;46580;52.114;11.674;2023-07-02T12:39:58;8.87;;;4.50;;
60730;SDS011;46580;52.114;11.674;2023-07-02T12:42:23;12.67;;;5.43;;
60730;SDS011;46580;52.114;11.674;2023-07-02T12:44:49;10.83;;;5.37;;
60730;SDS011;46580;52.114;11.674;2023-07-02T12:47:14;16.33;;;5.30;;
60730;SDS011;46580;52.114;11.674;2023-07-02T12:49:39;13.67;;;5.67;;
60730;SDS011;46580;52.114;11.674;2023-07-02T12:52:05;10.60;;;4.97;;
60730;SDS011;46580;52.114;11.674;2023-07-02T12:54:30;11.43;;;5.17;;
60730;SDS011;46580;52.114;11.674;2023-07-02T12:56:55;11.13;;;4.83;;
60730;SDS011;46580;52.114;11.674;2023-07-02T12:59:20;14.87;;;5.37;;
60730;SDS011;46580;52.114;11.674;2023-07-02T13:01:46;9.20;;;4.73;;
60730;SDS011;46580;52.114;11.674;2023-07-02T13:04:11;10.70;;;4.13;;
60730;SDS011;46580;52.114;11.674;2023-07-02T13:06:37;7.57;;;4.70;;
60730;SDS011;46580;52.114;11.674;2023-07-02T13:09:06;10.03;;;4.43;;
60730;SDS011;46580;52.114;11.674;2023-07-02T13:11:31;11.07;;;4.83;;
60730;SDS011;46580;52.114;11.674;2023-07-02T13:13:59;13.73;;;4.83;;
60730;SDS011;46580;52.114;11.674;2023-07-02T13:16:25;10.63;;;4.80;;
60730;SDS011;46580;52.114;11.674;2023-07-02T13:18:50;11.60;;;4.47;;
60730;SDS011;46580;52.114;11.674;2023-07-02T13:21:15;12.03;;;4.40;;
60730;SDS011;46580;52.114;11.674;2023-07-02T13:23:40;6.17;;;3.53;;
60730;SDS011;46580;52.114;11.674;2023-07-02T13:26:06;10.73;;;3.83;;
60730;SDS011;46580;52.114;11.674;2023-07-02T13:28:31;9.97;;;4.07;;
60730;SDS011;46580;52.114;11.674;2023-07-02T13:30:56;10.67;;;4.47;;
60730;SDS011;46580;52.114;11.674;2023-07-02T13:33:22;6.07;;;3.63;;
60730;SDS011;46580;52.114;11.674;2023-07-02T13:35:47;11.17;;;4.63;;
60730;SDS011;46580;52.114;11.674;2023-07-02T13:38:15;10.07;;;4.00;;
60730;SDS011;46580;52.114;11.674;2023-07-02T13:40:41;10.37;;;4.73;;
60730;SDS011;46580;52.114;11.674;2023-07-02T13:43:06;10.63;;;4.77;;
60730;SDS011;46580;52.114;11.674;2023-07-02T13:45:32;10.83;;;4.00;;
60730;SDS011;46580;52.114;11.674;2023-07-02T13:47:57;10.00;;;4.03;;
60730;SDS011;46580;52.114;11.674;2023-07-02T13:50:22;8.70;;;4.20;;
60730;SDS011;46580;52.114;11.674;2023-07-02T13:52:53;6.50;;;3.53;;
60730;SDS011;46580;52.114;11.674;2023-07-02T13:55:19;8.57;;;4.10;;
60730;SDS011;46580;52.114;11.674;2023-07-02T13:57:46;10.33;;;4.00;;
60730;SDS011;46580;52.114;11.674;2023-07-02T14:00:11;9.43;;;3.83;;
60730;SDS011;46580;52.114;11.674;2023-07-02T14:02:36;10.40;;;3.90;;
60730;SDS011;46580;52.114;11.674;2023-07-02T14:05:01;10.80;;;4.47;;
60730;SDS011;46580;52.114;11.674;2023-07-02T14:07:27;9.47;;;3.87;;
60730;SDS011;46580;52.114;11.674;2023-07-02T14:09:52;10.20;;;4.10;;
60730;SDS011;46580;52.114;11.674;2023-07-02T14:12:17;9.93;;;3.63;;
60730;SDS011;46580;52.114;11.674;2023-07-02T14:14:42;8.33;;;3.57;;
60730;SDS011;46580;52.114;11.674;2023-07-02T14:17:11;7.60;;;3.73;;
60730;SDS011;46580;52.114;11.674;2023-07-02T14:19:36;7.67;;;4.03;;
60730;SDS011;46580;52.114;11.674;2023-07-02T14:22:01;9.27;;;4.20;;
60730;SDS011;46580;52.114;11.674;2023-07-02T14:24:27;11.33;;;4.90;;
60730;SDS011;46580;52.114;11.674;2023-07-02T14:26:52;10.27;;;4.83;;
60730;SDS011;46580;52.114;11.674;2023-07-02T14:29:17;7.43;;;3.43;;